createdAt,value
2023-04-08T00:00:29.742Z,15.73
2023-04-08T00:02:56.786Z,15.87
2023-04-08T00:05:23.580Z,15.67
2023-04-08T00:07:50.248Z,16.37
2023-04-08T00:10:17.015Z,15.53
2023-04-08T00:12:43.860Z,16.50
2023-04-08T00:15:10.822Z,16.20
2023-04-08T00:17:37.551Z,15.30
2023-04-08T00:20:05.015Z,15.63
2023-04-08T00:22:31.839Z,14.77
2023-04-08T00:24:58.945Z,15.17
2023-04-08T00:27:26.001Z,16.37
2023-04-08T00:29:52.713Z,15.87
2023-04-08T00:32:19.391Z,15.27
2023-04-08T00:34:46.228Z,15.13
2023-04-08T00:37:12.924Z,15.13
2023-04-08T00:39:39.671Z,16.03
2023-04-08T00:42:06.952Z,15.17
2023-04-08T00:44:33.740Z,15.07
2023-04-08T00:47:00.654Z,15.57
2023-04-08T00:49:27.601Z,14.80
2023-04-08T00:51:55.737Z,15.57
2023-04-08T00:54:22.636Z,14.87
2023-04-08T00:56:49.404Z,15.07
2023-04-08T00:59:17.747Z,15.13
2023-04-08T01:01:56.756Z,16.77
2023-04-08T01:04:26.496Z,15.17
2023-04-08T01:07:01.671Z,15.73
2023-04-08T01:09:30.720Z,15.40
2023-04-08T01:11:58.503Z,16.33
2023-04-08T01:14:27.554Z,16.30
2023-04-08T01:16:59.259Z,16.17
2023-04-08T01:19:35.156Z,15.33
2023-04-08T01:22:06.398Z,15.47
2023-04-08T01:24:37.252Z,15.87
2023-04-08T01:27:04.394Z,15.77
2023-04-08T01:29:31.557Z,16.20
2023-04-08T01:31:58.926Z,16.70
2023-04-08T01:34:25.802Z,16.33
2023-04-08T01:36:57.956Z,15.90
2023-04-08T01:39:26.180Z,15.80
2023-04-08T01:41:54.070Z,15.73
2023-04-08T01:44:21.869Z,16.40
2023-04-08T01:46:49.550Z,16.57
2023-04-08T01:49:16.892Z,15.17
2023-04-08T01:51:44.927Z,16.53
2023-04-08T01:54:11.656Z,15.57
2023-04-08T01:56:39.976Z,14.90
2023-04-08T01:59:11.315Z,15.10
2023-04-08T02:01:38.847Z,15.77
2023-04-08T02:04:05.900Z,16.50
2023-04-08T02:06:33.186Z,16.73
2023-04-08T02:09:00.965Z,15.60
2023-04-08T02:11:28.555Z,15.43
2023-04-08T02:13:55.645Z,17.30
2023-04-08T02:16:35.348Z,16.60
2023-04-08T02:19:08.918Z,16.50
2023-04-08T02:21:47.200Z,16.97
2023-04-08T02:24:14.506Z,20.57
2023-04-08T02:26:42.653Z,17.73
2023-04-08T02:29:12.983Z,17.97
2023-04-08T02:31:42.066Z,18.17
2023-04-08T02:34:10.685Z,19.97
2023-04-08T02:36:39.160Z,17.13
2023-04-08T02:39:05.841Z,17.23
2023-04-08T02:41:32.699Z,17.13
2023-04-08T02:43:59.385Z,17.33
2023-04-08T02:46:26.094Z,16.93
2023-04-08T02:48:53.806Z,18.03
2023-04-08T02:51:20.641Z,16.83
2023-04-08T02:53:47.543Z,16.30
2023-04-08T02:56:14.295Z,16.73
2023-04-08T02:58:41.168Z,15.40
2023-04-08T03:01:09.191Z,16.53
2023-04-08T03:03:36.814Z,17.47
2023-04-08T03:06:04.289Z,17.53
2023-04-08T03:08:31.119Z,17.17
2023-04-08T03:10:57.803Z,17.90
2023-04-08T03:13:24.516Z,17.13
2023-04-08T03:15:51.280Z,17.23
2023-04-08T03:18:18.130Z,16.70
2023-04-08T03:20:44.782Z,16.73
2023-04-08T03:23:11.464Z,17.27
2023-04-08T03:25:38.189Z,17.83
2023-04-08T03:28:04.902Z,18.03
2023-04-08T03:30:32.014Z,17.37
2023-04-08T03:32:58.739Z,18.17
2023-04-08T03:35:25.794Z,19.83
2023-04-08T03:37:52.585Z,18.10
2023-04-08T03:40:19.797Z,17.43
2023-04-08T03:42:46.662Z,18.30
2023-04-08T03:45:13.343Z,17.93
2023-04-08T03:47:40.686Z,18.47
2023-04-08T03:50:07.852Z,18.00
2023-04-08T03:52:34.558Z,17.83
2023-04-08T03:55:01.442Z,20.80
2023-04-08T03:57:28.229Z,19.00
2023-04-08T03:59:54.937Z,18.57
2023-04-08T04:02:21.692Z,18.07
2023-04-08T04:04:48.709Z,17.67
2023-04-08T04:07:15.777Z,18.53
2023-04-08T04:09:42.430Z,18.20
2023-04-08T04:12:09.072Z,17.37
2023-04-08T04:14:36.127Z,18.17
2023-04-08T04:17:02.987Z,17.93
2023-04-08T04:19:32.867Z,18.80
2023-04-08T04:21:59.578Z,18.73
2023-04-08T04:24:26.316Z,17.20
2023-04-08T04:26:53.039Z,18.20
2023-04-08T04:29:19.762Z,17.03
2023-04-08T04:31:46.673Z,17.57
2023-04-08T04:34:13.442Z,17.03
2023-04-08T04:36:40.153Z,17.57
2023-04-08T04:39:06.809Z,18.70
2023-04-08T04:41:33.522Z,19.27
2023-04-08T04:44:00.212Z,20.50
2023-04-08T04:46:27.127Z,19.27
2023-04-08T04:48:53.805Z,18.93
2023-04-08T04:51:20.857Z,20.33
2023-04-08T04:53:48.377Z,18.93
2023-04-08T04:56:15.120Z,18.83
2023-04-08T04:58:42.352Z,19.00
2023-04-08T05:01:09.042Z,21.63
2023-04-08T05:03:35.760Z,20.97
2023-04-08T05:06:02.461Z,21.17
2023-04-08T05:08:29.147Z,23.00
2023-04-08T05:10:56.696Z,23.57
2023-04-08T05:13:23.403Z,23.73
2023-04-08T05:15:50.132Z,27.20
2023-04-08T05:18:16.909Z,28.07
2023-04-08T05:20:43.648Z,26.47
2023-04-08T05:23:10.468Z,41.00
2023-04-08T05:25:37.203Z,30.77
2023-04-08T05:28:04.488Z,31.77
2023-04-08T05:30:31.631Z,39.67
2023-04-08T05:33:00.357Z,126.07
2023-04-08T05:35:27.566Z,28.30
2023-04-08T05:37:54.291Z,26.67
2023-04-08T05:40:21.407Z,65.73
2023-04-08T05:42:48.104Z,38.23
2023-04-08T05:45:14.897Z,42.33
2023-04-08T05:47:41.639Z,50.90
2023-04-08T05:50:08.822Z,37.20
2023-04-08T05:52:35.514Z,26.53
2023-04-08T05:55:02.140Z,32.53
2023-04-08T05:57:29.031Z,33.87
2023-04-08T05:59:55.928Z,62.07
2023-04-08T06:02:23.330Z,56.73
2023-04-08T06:04:50.141Z,28.53
2023-04-08T06:07:16.877Z,40.90
2023-04-08T06:09:45.273Z,43.10
2023-04-08T06:12:12.125Z,44.47
2023-04-08T06:14:38.779Z,53.43
2023-04-08T06:17:05.775Z,56.57
2023-04-08T06:19:32.548Z,64.07
2023-04-08T06:21:59.590Z,69.07
2023-04-08T06:24:27.682Z,67.97
2023-04-08T06:26:54.489Z,57.47
2023-04-08T06:29:24.276Z,53.40
2023-04-08T06:31:51.491Z,61.97
2023-04-08T06:34:18.319Z,57.70
2023-04-08T06:36:45.145Z,62.40
2023-04-08T06:39:11.842Z,53.87
2023-04-08T06:41:38.580Z,66.97
2023-04-08T06:44:05.480Z,61.40
2023-04-08T06:46:32.158Z,73.20
2023-04-08T06:48:58.929Z,60.60
2023-04-08T06:51:25.911Z,72.10
2023-04-08T06:53:52.771Z,73.63
2023-04-08T06:56:21.555Z,70.27
2023-04-08T06:58:48.441Z,75.97
2023-04-08T07:01:16.665Z,70.27
2023-04-08T07:03:43.781Z,64.33
2023-04-08T07:06:10.678Z,67.13
2023-04-08T07:08:37.758Z,68.20
2023-04-08T07:11:05.704Z,68.73
2023-04-08T07:13:32.405Z,52.23
2023-04-08T07:15:59.110Z,49.47
2023-04-08T07:18:26.540Z,53.13
2023-04-08T07:20:54.239Z,51.53
2023-04-08T07:23:21.133Z,60.50
2023-04-08T07:25:48.402Z,54.17
2023-04-08T07:28:15.198Z,57.80
2023-04-08T07:30:41.899Z,47.20
2023-04-08T07:33:08.686Z,47.23
2023-04-08T07:35:35.491Z,40.07
2023-04-08T07:38:02.221Z,42.73
2023-04-08T07:40:29.027Z,35.30
2023-04-08T07:42:55.733Z,35.40
2023-04-08T07:45:22.559Z,34.50
2023-04-08T07:47:49.375Z,25.33
2023-04-08T07:50:16.161Z,24.47
2023-04-08T07:52:42.878Z,31.13
2023-04-08T07:55:10.008Z,32.30
2023-04-08T07:57:36.831Z,34.93
2023-04-08T08:00:05.048Z,36.27
2023-04-08T08:02:32.610Z,36.43
2023-04-08T08:05:01.783Z,37.93
2023-04-08T08:07:28.502Z,47.30
2023-04-08T08:09:55.263Z,50.07
2023-04-08T08:12:22.054Z,51.63
2023-04-08T08:14:49.058Z,50.07
2023-04-08T08:17:15.851Z,56.87
2023-04-08T08:19:42.504Z,57.20
2023-04-08T08:22:09.177Z,73.43
2023-04-08T08:24:35.882Z,72.03
2023-04-08T08:27:04.697Z,74.17
2023-04-08T08:29:31.514Z,78.33
2023-04-08T08:31:58.230Z,85.57
2023-04-08T08:34:24.978Z,81.13
2023-04-08T08:36:51.687Z,78.90
2023-04-08T08:39:18.330Z,86.03
2023-04-08T08:41:45.149Z,82.77
2023-04-08T08:44:12.291Z,79.53
2023-04-08T08:46:44.884Z,87.10
2023-04-08T08:49:12.820Z,90.83
2023-04-08T08:51:41.149Z,79.97
2023-04-08T08:54:08.724Z,78.30
2023-04-08T08:56:35.515Z,80.03
2023-04-08T08:59:02.226Z,80.27
2023-04-08T09:01:36.531Z,75.67
2023-04-08T09:04:23.072Z,76.50
2023-04-08T09:06:51.804Z,70.90
2023-04-08T09:09:18.714Z,74.50
2023-04-08T09:11:47.365Z,71.83
2023-04-08T09:14:21.940Z,60.07
2023-04-08T09:16:49.172Z,60.33
2023-04-08T09:19:16.106Z,53.43
2023-04-08T09:21:43.707Z,52.17
2023-04-08T09:24:11.316Z,55.03
2023-04-08T09:26:38.077Z,52.83
2023-04-08T09:29:18.076Z,50.17
2023-04-08T09:31:56.807Z,42.83
2023-04-08T09:34:24.558Z,38.87
2023-04-08T09:36:51.819Z,38.50
2023-04-08T09:39:19.031Z,33.73
2023-04-08T09:41:49.175Z,35.30
2023-04-08T09:44:26.904Z,31.27
2023-04-08T09:47:02.102Z,28.47
2023-04-08T09:49:39.543Z,26.07
2023-04-08T09:52:18.325Z,31.40
2023-04-08T09:55:04.635Z,26.00
2023-04-08T09:57:42.816Z,27.07
2023-04-08T10:00:17.247Z,22.90
2023-04-08T10:03:28.173Z,23.03
2023-04-08T10:05:56.930Z,20.97
2023-04-08T10:08:27.327Z,21.67
2023-04-08T10:10:55.282Z,18.63
2023-04-08T10:13:23.075Z,17.10
2023-04-08T10:15:49.821Z,16.90
2023-04-08T10:18:19.477Z,15.70
2023-04-08T10:20:47.058Z,15.93
2023-04-08T10:23:17.872Z,15.23
2023-04-08T10:25:45.745Z,15.33
2023-04-08T10:28:12.431Z,14.90
2023-04-08T10:30:42.791Z,14.47
2023-04-08T10:33:15.868Z,14.00
2023-04-08T10:35:51.413Z,14.07
2023-04-08T10:38:19.082Z,13.57
2023-04-08T10:40:46.261Z,14.13
2023-04-08T10:43:14.038Z,13.03
2023-04-08T10:45:42.065Z,11.70
2023-04-08T10:48:29.234Z,11.93
2023-04-08T10:50:56.881Z,11.53
2023-04-08T10:53:40.134Z,10.60
2023-04-08T10:56:07.875Z,11.60
2023-04-08T10:58:48.349Z,9.23
2023-04-08T11:01:15.136Z,10.07
2023-04-08T11:03:43.128Z,10.20
2023-04-08T11:06:10.129Z,10.30
2023-04-08T11:08:37.236Z,10.80
2023-04-08T11:11:05.758Z,10.10
2023-04-08T11:13:33.426Z,9.93
2023-04-08T11:16:00.672Z,9.73
2023-04-08T11:18:27.585Z,10.40
2023-04-08T11:20:54.752Z,10.83
2023-04-08T11:23:23.069Z,10.50
2023-04-08T11:25:50.006Z,10.23
2023-04-08T11:28:17.227Z,10.17
2023-04-08T11:30:44.323Z,10.37
2023-04-08T11:33:11.548Z,11.00
2023-04-08T11:35:42.585Z,10.03
2023-04-08T11:38:10.117Z,8.97
2023-04-08T11:40:37.003Z,9.53
2023-04-08T11:43:15.665Z,9.17
2023-04-08T11:45:42.744Z,9.07
2023-04-08T11:48:14.450Z,10.20
2023-04-08T11:50:42.072Z,8.90
2023-04-08T11:53:27.025Z,9.60
2023-04-08T11:55:53.769Z,9.53
2023-04-08T11:58:20.444Z,10.17
2023-04-08T12:00:47.689Z,9.77
2023-04-08T12:03:14.562Z,9.57
2023-04-08T12:05:41.569Z,9.20
2023-04-08T12:08:08.236Z,9.37
2023-04-08T12:10:34.986Z,8.83
2023-04-08T12:13:01.870Z,8.83
2023-04-08T12:15:28.620Z,7.00
2023-04-08T12:17:56.141Z,7.23
2023-04-08T12:20:22.927Z,7.00
2023-04-08T12:22:49.621Z,6.23
2023-04-08T12:25:16.437Z,7.73
2023-04-08T12:27:43.442Z,5.77
2023-04-08T12:30:10.789Z,5.57
2023-04-08T12:32:37.724Z,6.47
2023-04-08T12:35:04.715Z,6.03
2023-04-08T12:37:33.512Z,5.90
2023-04-08T12:40:00.470Z,8.17
2023-04-08T12:42:28.151Z,5.73
2023-04-08T12:44:54.938Z,5.47
2023-04-08T12:47:22.227Z,5.10
2023-04-08T12:49:50.365Z,5.63
2023-04-08T12:52:17.800Z,6.67
2023-04-08T12:54:44.872Z,5.30
2023-04-08T12:57:12.006Z,5.50
2023-04-08T12:59:40.194Z,5.90
2023-04-08T13:02:08.230Z,5.80
2023-04-08T13:04:35.318Z,5.80
2023-04-08T13:07:02.564Z,5.97
2023-04-08T13:09:32.128Z,5.60
2023-04-08T13:11:58.833Z,5.63
2023-04-08T13:14:25.830Z,6.17
2023-04-08T13:16:52.822Z,6.50
2023-04-08T13:19:19.626Z,6.17
2023-04-08T13:21:46.540Z,6.57
2023-04-08T13:24:13.401Z,6.23
2023-04-08T13:26:40.108Z,6.67
2023-04-08T13:29:06.968Z,6.50
2023-04-08T13:31:33.730Z,6.40
2023-04-08T13:34:00.469Z,6.23
2023-04-08T13:36:29.154Z,6.63
2023-04-08T13:38:56.694Z,6.63
2023-04-08T13:41:23.585Z,8.47
2023-04-08T13:43:50.743Z,7.10
2023-04-08T13:46:18.455Z,7.30
2023-04-08T13:48:46.169Z,7.00
2023-04-08T13:51:12.917Z,7.47
2023-04-08T13:53:39.686Z,9.77
2023-04-08T13:56:06.692Z,9.33
2023-04-08T13:58:33.381Z,7.53
2023-04-08T14:01:00.138Z,8.00
2023-04-08T14:03:28.262Z,7.00
2023-04-08T14:05:55.102Z,7.63
2023-04-08T14:08:25.817Z,8.70
2023-04-08T14:10:53.529Z,7.77
2023-04-08T14:13:20.528Z,7.73
2023-04-08T14:15:50.342Z,8.60
2023-04-08T14:18:20.052Z,9.13
2023-04-08T14:20:46.847Z,8.50
2023-04-08T14:23:13.748Z,9.27
2023-04-08T14:25:41.109Z,8.97
2023-04-08T14:28:08.296Z,8.40
2023-04-08T14:30:36.392Z,7.90
2023-04-08T14:33:03.375Z,7.27
2023-04-08T14:35:30.204Z,8.87
2023-04-08T14:37:57.034Z,9.30
2023-04-08T14:40:24.000Z,10.03
2023-04-08T14:42:50.722Z,9.30
2023-04-08T14:45:17.790Z,9.20
2023-04-08T14:47:44.523Z,8.70
2023-04-08T14:50:12.067Z,8.50
2023-04-08T14:52:38.801Z,9.50
2023-04-08T14:55:06.080Z,9.27
2023-04-08T14:57:32.910Z,9.90
2023-04-08T14:59:59.700Z,9.17
2023-04-08T15:02:26.474Z,9.77
2023-04-08T15:04:53.170Z,8.93
2023-04-08T15:07:19.955Z,8.60
2023-04-08T15:09:47.113Z,8.90
2023-04-08T15:12:13.889Z,11.37
2023-04-08T15:14:40.784Z,12.37
2023-04-08T15:17:07.462Z,12.30
2023-04-08T15:19:34.133Z,12.20
2023-04-08T15:22:00.860Z,12.33
2023-04-08T15:24:27.717Z,13.80
2023-04-08T15:26:54.436Z,14.13
2023-04-08T15:29:23.388Z,13.10
2023-04-08T15:31:50.166Z,12.70
2023-04-08T15:34:17.098Z,12.70
2023-04-08T15:36:45.399Z,12.50
2023-04-08T15:39:12.339Z,13.13
2023-04-08T15:41:39.098Z,12.93
2023-04-08T15:44:05.951Z,12.83
2023-04-08T15:46:33.980Z,12.90
2023-04-08T15:49:01.733Z,12.60
2023-04-08T15:51:28.830Z,12.50
2023-04-08T15:53:55.533Z,12.07
2023-04-08T15:56:22.396Z,12.60
2023-04-08T15:58:49.349Z,12.50
2023-04-08T16:01:17.266Z,12.60
2023-04-08T16:03:44.095Z,13.37
2023-04-08T16:06:11.384Z,12.50
2023-04-08T16:08:38.101Z,11.97
2023-04-08T16:11:06.532Z,13.20
2023-04-08T16:13:34.295Z,11.30
2023-04-08T16:16:04.294Z,11.77
2023-04-08T16:18:31.186Z,14.47
2023-04-08T16:20:58.012Z,14.97
2023-04-08T16:23:24.839Z,15.10
2023-04-08T16:25:52.061Z,14.87
2023-04-08T16:28:18.881Z,15.37
2023-04-08T16:30:48.006Z,15.00
2023-04-08T16:33:14.894Z,16.17
2023-04-08T16:35:41.684Z,15.40
2023-04-08T16:38:08.442Z,16.37
2023-04-08T16:40:35.317Z,15.30
2023-04-08T16:43:02.873Z,15.37
2023-04-08T16:45:30.150Z,15.47
2023-04-08T16:47:57.485Z,15.90
2023-04-08T16:50:24.447Z,15.43
2023-04-08T16:52:51.127Z,16.37
2023-04-08T16:55:18.397Z,18.23
2023-04-08T16:57:45.154Z,20.13
2023-04-08T17:00:12.237Z,20.87
2023-04-08T17:02:44.019Z,21.73
2023-04-08T17:05:11.144Z,20.63
2023-04-08T17:07:37.823Z,20.57
2023-04-08T17:10:04.992Z,19.77
2023-04-08T17:12:32.296Z,19.90
2023-04-08T17:14:59.046Z,18.37
2023-04-08T17:17:25.809Z,18.50
2023-04-08T17:19:53.254Z,18.90
2023-04-08T17:22:19.896Z,19.10
2023-04-08T17:24:47.969Z,19.30
2023-04-08T17:27:14.716Z,17.40
2023-04-08T17:29:41.663Z,16.83
2023-04-08T17:32:08.495Z,18.60
2023-04-08T17:34:35.474Z,19.00
2023-04-08T17:37:02.359Z,19.10
2023-04-08T17:39:30.424Z,17.40
2023-04-08T17:41:57.736Z,18.43
2023-04-08T17:44:29.966Z,15.43
2023-04-08T17:46:57.033Z,15.40
2023-04-08T17:49:23.903Z,14.53
2023-04-08T17:51:50.987Z,14.93
2023-04-08T17:54:18.065Z,13.70
2023-04-08T17:56:45.819Z,14.33
2023-04-08T17:59:13.385Z,14.57
2023-04-08T18:01:40.342Z,16.57
2023-04-08T18:04:08.644Z,17.73
2023-04-08T18:06:35.498Z,17.57
2023-04-08T18:09:03.952Z,17.37
2023-04-08T18:11:31.082Z,16.60
2023-04-08T18:13:58.001Z,19.33
2023-04-08T18:16:24.762Z,21.57
2023-04-08T18:18:51.611Z,20.50
2023-04-08T18:21:18.706Z,22.77
2023-04-08T18:23:47.285Z,21.77
2023-04-08T18:26:14.091Z,19.50
2023-04-08T18:28:41.388Z,19.93
2023-04-08T18:31:08.450Z,20.37
2023-04-08T18:33:35.531Z,20.63
2023-04-08T18:36:09.654Z,20.80
2023-04-08T18:38:37.002Z,21.77
2023-04-08T18:41:04.682Z,19.30
2023-04-08T18:43:32.023Z,21.47
2023-04-08T18:45:59.125Z,19.17
2023-04-08T18:48:26.009Z,19.17
2023-04-08T18:50:52.898Z,20.77
2023-04-08T18:53:19.623Z,22.63
2023-04-08T18:55:46.444Z,18.37
2023-04-08T18:58:13.165Z,20.60
2023-04-08T19:00:41.718Z,19.40
2023-04-08T19:03:10.284Z,19.10
2023-04-08T19:05:37.868Z,20.00
2023-04-08T19:08:05.952Z,19.23
2023-04-08T19:10:33.608Z,19.27
2023-04-08T19:13:01.033Z,17.77
2023-04-08T19:15:29.004Z,18.30
2023-04-08T19:17:56.716Z,18.40
2023-04-08T19:20:23.781Z,20.30
2023-04-08T19:22:51.290Z,19.17
2023-04-08T19:25:18.100Z,18.70
2023-04-08T19:27:46.083Z,20.43
2023-04-08T19:30:13.467Z,19.23
2023-04-08T19:32:40.454Z,17.73
2023-04-08T19:35:07.902Z,20.63
2023-04-08T19:37:34.947Z,21.43
2023-04-08T19:40:01.778Z,22.63
2023-04-08T19:42:29.352Z,22.63
2023-04-08T19:44:56.357Z,23.83
2023-04-08T19:47:23.042Z,25.80
2023-04-08T19:49:49.901Z,25.33
2023-04-08T19:52:16.607Z,25.63
2023-04-08T19:54:43.730Z,23.53
2023-04-08T19:57:11.760Z,25.90
2023-04-08T19:59:38.500Z,27.43
2023-04-08T20:02:05.552Z,26.73
2023-04-08T20:04:33.009Z,26.27
2023-04-08T20:07:04.000Z,30.90
2023-04-08T20:09:32.603Z,27.87
2023-04-08T20:12:04.720Z,31.03
2023-04-08T20:14:40.583Z,31.37
2023-04-08T20:17:07.730Z,30.97
2023-04-08T20:19:34.409Z,28.40
2023-04-08T20:22:01.796Z,31.30
2023-04-08T20:24:28.618Z,32.93
2023-04-08T20:26:55.341Z,30.33
2023-04-08T20:29:22.043Z,31.93
2023-04-08T20:31:48.823Z,30.53
2023-04-08T20:34:15.568Z,31.63
2023-04-08T20:36:42.538Z,31.87
2023-04-08T20:39:12.666Z,32.07
2023-04-08T20:41:39.447Z,30.93
2023-04-08T20:44:07.236Z,29.83
2023-04-08T20:46:35.400Z,29.93
2023-04-08T20:49:03.851Z,28.90
2023-04-08T20:51:31.602Z,29.57
2023-04-08T20:53:58.508Z,29.43
2023-04-08T20:56:26.597Z,27.50
2023-04-08T20:58:53.627Z,28.73
2023-04-08T21:01:20.764Z,27.30
2023-04-08T21:03:48.230Z,28.03
2023-04-08T21:06:18.873Z,29.07
2023-04-08T21:08:46.365Z,28.37
2023-04-08T21:11:13.494Z,26.83
2023-04-08T21:13:40.443Z,26.43
2023-04-08T21:16:07.744Z,26.20
2023-04-08T21:18:35.219Z,26.13
2023-04-08T21:21:01.920Z,26.00
2023-04-08T21:23:28.630Z,27.20
2023-04-08T21:25:55.563Z,24.40
2023-04-08T21:28:22.444Z,26.00
2023-04-08T21:30:49.231Z,28.23
2023-04-08T21:33:15.959Z,25.83
2023-04-08T21:35:42.710Z,23.33
2023-04-08T21:38:09.436Z,26.93
2023-04-08T21:40:36.235Z,23.97
2023-04-08T21:43:02.964Z,24.13
2023-04-08T21:45:30.188Z,24.13
2023-04-08T21:47:56.961Z,24.90
2023-04-08T21:50:23.758Z,26.83
2023-04-08T21:52:50.536Z,23.23
2023-04-08T21:55:17.226Z,26.93
2023-04-08T21:57:43.924Z,23.63
2023-04-08T22:00:13.619Z,25.27
2023-04-08T22:02:44.041Z,26.40
2023-04-08T22:05:11.648Z,25.33
2023-04-08T22:07:38.364Z,25.73
2023-04-08T22:10:05.428Z,27.60
2023-04-08T22:12:32.168Z,24.30
2023-04-08T22:14:58.830Z,24.03
2023-04-08T22:17:25.872Z,23.87
2023-04-08T22:19:52.575Z,24.80
2023-04-08T22:22:19.311Z,22.07
2023-04-08T22:24:46.322Z,21.93
2023-04-08T22:27:13.019Z,22.30
2023-04-08T22:29:39.741Z,18.70
2023-04-08T22:32:06.923Z,24.47
2023-04-08T22:34:33.685Z,21.23
2023-04-08T22:37:00.322Z,21.63
2023-04-08T22:39:27.755Z,19.97
2023-04-08T22:41:54.510Z,18.87
2023-04-08T22:44:21.139Z,19.50
2023-04-08T22:46:48.424Z,21.73
2023-04-08T22:49:15.086Z,20.87
2023-04-08T22:51:43.138Z,22.07
2023-04-08T22:54:09.851Z,21.33
2023-04-08T22:56:36.830Z,22.80
2023-04-08T22:59:03.629Z,22.43
2023-04-08T23:01:30.594Z,23.20
2023-04-08T23:03:57.346Z,22.10
2023-04-08T23:06:24.027Z,23.30
2023-04-08T23:08:51.164Z,20.73
2023-04-08T23:11:18.092Z,23.23
2023-04-08T23:13:44.724Z,22.90
2023-04-08T23:16:11.522Z,21.53
2023-04-08T23:18:38.219Z,24.13
2023-04-08T23:21:05.207Z,25.40
2023-04-08T23:23:32.081Z,23.97
2023-04-08T23:25:58.789Z,22.63
2023-04-08T23:28:25.607Z,21.33
2023-04-08T23:30:53.096Z,21.03
2023-04-08T23:33:19.812Z,24.53
2023-04-08T23:35:46.543Z,19.77
2023-04-08T23:38:13.233Z,21.23
2023-04-08T23:40:39.999Z,20.43
2023-04-08T23:43:06.680Z,20.83
2023-04-08T23:45:33.382Z,23.20
2023-04-08T23:48:00.036Z,21.60
2023-04-08T23:50:26.746Z,21.37
2023-04-08T23:52:53.446Z,22.50
2023-04-08T23:55:20.146Z,25.47
2023-04-08T23:57:49.398Z,19.90
